Time;durP1;ratioP1;P1;durP2;ratioP2;P2;SDS_P1;SDS_P2;PMS_P1;PMS_P2;Temp;Humidity;BMP_temperature;BMP_pressure;BME280_temperature;BME280_humidity;BME280_pressure;Samples;Min_cycle;Max_cycle;Signal;HPM_P1;HPM_P2
2023/12/30 00:01:23;;;;;;;8.00;1.87;;;9.80;99.90;;;;;;5032293;28;20199;-75
2023/12/30 00:03:51;;;;;;;6.87;2.60;;;9.80;99.90;;;;;;5033243;28;20191;-75
2023/12/30 00:06:19;;;;;;;7.10;2.23;;;9.80;99.90;;;;;;5031898;28;20191;-75
2023/12/30 00:08:48;;;;;;;8.17;2.50;;;9.80;99.90;;;;;;5032041;28;20203;-75
2023/12/30 00:11:16;;;;;;;8.07;2.33;;;9.80;99.90;;;;;;5033527;28;20211;-75
2023/12/30 00:13:43;;;;;;;7.43;2.00;;;9.80;99.90;;;;;;5031702;28;20203;-75
2023/12/30 00:16:13;;;;;;;6.70;2.10;;;9.80;99.90;;;;;;5033004;28;20727;-76
2023/12/30 00:18:40;;;;;;;5.03;2.00;;;9.70;99.90;;;;;;5033246;28;20191;-76
2023/12/30 00:21:08;;;;;;;8.37;2.13;;;9.70;99.90;;;;;;5031797;28;20198;-76
2023/12/30 00:23:37;;;;;;;11.60;2.93;;;9.80;99.90;;;;;;5032057;28;20206;-75
2023/12/30 00:26:06;;;;;;;11.70;2.23;;;9.70;99.90;;;;;;5031233;28;20224;-76
2023/12/30 00:28:33;;;;;;;5.77;2.17;;;9.70;99.90;;;;;;5031208;28;20211;-76
2023/12/30 00:31:01;;;;;;;9.57;2.10;;;9.70;99.90;;;;;;5032833;28;20234;-76
2023/12/30 00:33:29;;;;;;;8.80;2.30;;;9.70;99.90;;;;;;5031249;28;20210;-75
2023/12/30 00:35:56;;;;;;;7.67;2.53;;;9.80;99.90;;;;;;5031085;28;20213;-76
2023/12/30 00:38:23;;;;;;;7.77;2.40;;;9.70;99.90;;;;;;5031092;28;20202;-76
2023/12/30 00:40:51;;;;;;;8.80;2.80;;;9.70;99.90;;;;;;5031201;28;20206;-76
2023/12/30 00:43:20;;;;;;;9.80;2.47;;;9.70;99.90;;;;;;5030891;28;20199;-75
2023/12/30 00:45:48;;;;;;;8.57;2.27;;;9.70;99.90;;;;;;5031238;28;20211;-76
2023/12/30 00:48:15;;;;;;;8.87;2.27;;;9.70;99.90;;;;;;5031507;28;20687;-76
2023/12/30 00:50:43;;;;;;;7.33;2.50;;;9.70;99.90;;;;;;5032728;28;20191;-76
2023/12/30 00:53:10;;;;;;;5.17;2.37;;;9.70;99.90;;;;;;5031423;28;20202;-76
2023/12/30 00:55:38;;;;;;;8.77;2.40;;;9.60;99.90;;;;;;5030804;28;20222;-75
2023/12/30 00:58:05;;;;;;;4.37;2.07;;;9.60;99.90;;;;;;5031216;28;20203;-76
2023/12/30 01:00:34;;;;;;;7.17;2.47;;;9.60;99.90;;;;;;5031214;28;20191;-76
2023/12/30 01:03:01;;;;;;;8.37;2.17;;;9.50;99.90;;;;;;5030932;28;20187;-76
2023/12/30 01:05:28;;;;;;;7.40;3.00;;;9.50;99.90;;;;;;5030536;28;20214;-76
2023/12/30 01:07:57;;;;;;;7.53;3.10;;;9.60;99.90;;;;;;5031074;28;20661;-76
2023/12/30 01:10:24;;;;;;;5.50;2.07;;;9.60;99.90;;;;;;5031419;28;20213;-76
2023/12/30 01:12:52;;;;;;;12.07;4.07;;;9.50;99.90;;;;;;5030995;28;20215;-76
2023/12/30 01:15:19;;;;;;;9.83;2.73;;;9.50;99.90;;;;;;5030453;28;20697;-76
2023/12/30 01:17:48;;;;;;;9.23;2.47;;;9.50;99.90;;;;;;5030744;28;20210;-76
2023/12/30 01:20:15;;;;;;;6.30;2.80;;;9.50;99.90;;;;;;5032549;28;20187;-76
2023/12/30 01:22:43;;;;;;;9.67;2.70;;;9.50;99.90;;;;;;5031005;28;20198;-76
2023/12/30 01:25:10;;;;;;;7.93;2.40;;;9.50;99.90;;;;;;5030506;28;20665;-76
2023/12/30 01:27:38;;;;;;;11.17;2.40;;;9.50;99.90;;;;;;5030611;28;20209;-76
2023/12/30 01:30:06;;;;;;;10.07;2.60;;;9.50;99.90;;;;;;5032255;28;20198;-76
2023/12/30 01:32:34;;;;;;;6.37;2.73;;;9.50;99.90;;;;;;5032191;28;20218;-76
2023/12/30 01:35:03;;;;;;;9.37;2.20;;;9.50;99.90;;;;;;5033787;28;20588;-76
2023/12/30 01:37:30;;;;;;;12.40;2.60;;;9.50;99.90;;;;;;5034792;28;20205;-76
2023/12/30 01:39:58;;;;;;;6.70;2.37;;;9.50;99.90;;;;;;5034855;28;20199;-76
2023/12/30 01:42:25;;;;;;;8.73;2.60;;;9.50;99.90;;;;;;5034508;28;20194;-76
2023/12/30 01:44:53;;;;;;;8.27;2.50;;;9.50;99.90;;;;;;5033796;28;20211;-76
2023/12/30 01:47:20;;;;;;;7.73;2.67;;;9.40;99.90;;;;;;5034673;28;20195;-76
2023/12/30 01:49:48;;;;;;;8.83;2.70;;;9.40;99.90;;;;;;5034605;28;20191;-76
2023/12/30 01:52:17;;;;;;;7.43;2.50;;;9.40;99.90;;;;;;5036101;28;20214;-76
2023/12/30 01:54:45;;;;;;;7.60;2.00;;;9.50;99.90;;;;;;5034349;28;20241;-76
2023/12/30 01:57:14;;;;;;;7.07;1.97;;;9.40;99.90;;;;;;5034619;28;20203;-76
2023/12/30 01:59:42;;;;;;;9.23;2.67;;;9.40;99.90;;;;;;5034249;28;20206;-76
2023/12/30 02:02:10;;;;;;;6.17;2.03;;;9.40;99.90;;;;;;5034139;28;20202;-76
2023/12/30 02:04:38;;;;;;;5.03;2.03;;;9.40;99.90;;;;;;5033772;28;20225;-76
2023/12/30 02:07:05;;;;;;;7.53;2.43;;;9.40;99.90;;;;;;5034194;28;20198;-76
2023/12/30 02:09:34;;;;;;;7.43;2.23;;;9.30;99.90;;;;;;5035387;28;20190;-76
2023/12/30 02:12:02;;;;;;;10.27;2.60;;;9.30;99.90;;;;;;5033956;28;20219;-76
2023/12/30 02:14:30;;;;;;;7.00;2.23;;;9.30;99.90;;;;;;5033963;28;20219;-76
2023/12/30 02:16:58;;;;;;;7.80;2.30;;;9.30;99.90;;;;;;5034226;28;20641;-76
2023/12/30 02:19:26;;;;;;;12.00;3.43;;;9.30;99.90;;;;;;5034029;28;20203;-76
2023/12/30 02:21:53;;;;;;;8.27;2.00;;;9.30;99.90;;;;;;5034239;28;20214;-76
2023/12/30 02:24:22;;;;;;;8.40;2.27;;;9.20;99.90;;;;;;5033627;28;20234;-76
2023/12/30 02:26:50;;;;;;;6.60;2.13;;;9.20;99.90;;;;;;5034041;28;20195;-76
2023/12/30 02:29:17;;;;;;;7.77;2.53;;;9.20;99.90;;;;;;5033847;28;20226;-75
2023/12/30 02:31:47;;;;;;;6.90;2.00;;;9.20;99.90;;;;;;5033506;28;20215;-76
2023/12/30 02:34:16;;;;;;;8.53;3.23;;;9.20;99.90;;;;;;5032925;28;20222;-76
2023/12/30 02:36:43;;;;;;;8.83;2.40;;;9.20;99.90;;;;;;5033887;28;20206;-76
2023/12/30 02:39:11;;;;;;;8.10;1.93;;;9.10;99.90;;;;;;5033792;28;20206;-76
2023/12/30 02:41:40;;;;;;;5.20;1.97;;;9.10;99.90;;;;;;5034076;28;20199;-76
2023/12/30 02:44:07;;;;;;;7.17;2.00;;;9.20;99.90;;;;;;5033159;28;20241;-76
2023/12/30 02:46:35;;;;;;;12.83;3.47;;;9.10;99.90;;;;;;5032927;28;20210;-76
2023/12/30 02:49:04;;;;;;;11.27;2.40;;;9.10;99.90;;;;;;5033298;28;20210;-76
2023/12/30 02:51:32;;;;;;;5.47;2.17;;;9.10;99.90;;;;;;5033324;28;20199;-76
2023/12/30 02:54:00;;;;;;;8.93;2.40;;;9.10;99.90;;;;;;5032778;28;20576;-76
2023/12/30 02:56:28;;;;;;;11.43;2.53;;;9.00;99.90;;;;;;5033200;28;20286;-76
2023/12/30 02:58:58;;;;;;;6.70;2.33;;;9.00;99.90;;;;;;5032992;28;20210;-76
2023/12/30 03:01:27;;;;;;;6.70;2.10;;;9.10;99.90;;;;;;5034739;28;20195;-76
2023/12/30 03:03:56;;;;;;;6.53;2.47;;;9.00;99.90;;;;;;5034294;28;20194;-76
2023/12/30 03:06:24;;;;;;;9.10;3.47;;;9.00;99.90;;;;;;5033196;28;20198;-76
2023/12/30 03:08:52;;;;;;;7.80;2.77;;;9.00;99.90;;;;;;5033104;28;20199;-76
2023/12/30 03:11:20;;;;;;;7.37;2.63;;;9.00;99.90;;;;;;5033401;28;20195;-76
2023/12/30 03:13:47;;;;;;;8.30;2.47;;;9.00;99.90;;;;;;5032689;28;20230;-76
2023/12/30 03:16:16;;;;;;;8.00;2.77;;;9.00;99.90;;;;;;5033347;28;20191;-76
2023/12/30 03:18:46;;;;;;;10.57;2.57;;;9.00;99.90;;;;;;5032638;28;20202;-76
2023/12/30 03:21:17;;;;;;;9.13;2.93;;;9.00;99.90;;;;;;5032728;28;20195;-76
2023/12/30 03:23:44;;;;;;;7.80;2.87;;;9.00;99.90;;;;;;5034047;28;20198;-76
2023/12/30 03:26:12;;;;;;;8.27;2.60;;;8.90;99.90;;;;;;5032665;28;20194;-76
2023/12/30 03:28:39;;;;;;;9.77;3.37;;;8.90;99.90;;;;;;5032564;28;20195;-76
2023/12/30 03:31:07;;;;;;;10.73;3.03;;;8.90;99.90;;;;;;5032726;28;20203;-76
2023/12/30 03:33:35;;;;;;;8.53;3.50;;;8.90;99.90;;;;;;5032446;28;20215;-76
2023/12/30 03:36:03;;;;;;;6.70;2.90;;;8.90;99.90;;;;;;5032855;28;20226;-76
2023/12/30 03:38:30;;;;;;;8.57;3.50;;;8.90;99.90;;;;;;5032384;28;20203;-76
2023/12/30 03:40:58;;;;;;;8.67;2.90;;;8.90;99.90;;;;;;5032419;28;20203;-76
2023/12/30 03:43:25;;;;;;;9.87;2.83;;;8.90;99.90;;;;;;5032338;28;20187;-76
2023/12/30 03:45:52;;;;;;;8.87;2.93;;;8.90;99.90;;;;;;5020571;28;20203;-76
2023/12/30 03:48:20;;;;;;;11.90;3.10;;;8.90;99.90;;;;;;5032522;28;20199;-76
2023/12/30 03:50:48;;;;;;;7.07;2.27;;;8.80;99.90;;;;;;5032215;28;20191;-76
2023/12/30 03:53:17;;;;;;;7.67;2.80;;;8.90;99.90;;;;;;5031998;28;20215;-76
2023/12/30 03:55:44;;;;;;;8.80;2.73;;;8.90;99.90;;;;;;5032348;28;20233;-77
2023/12/30 03:58:11;;;;;;;7.23;3.00;;;8.90;99.90;;;;;;5031220;28;20195;-76
2023/12/30 04:00:39;;;;;;;7.57;2.30;;;8.90;99.90;;;;;;5031738;28;20209;-76
2023/12/30 04:03:06;;;;;;;10.10;2.87;;;8.90;99.90;;;;;;5031889;28;20191;-76
2023/12/30 04:05:34;;;;;;;11.73;2.83;;;8.80;99.90;;;;;;5031530;28;20230;-76
2023/12/30 04:08:03;;;;;;;8.43;2.80;;;8.90;99.90;;;;;;5031739;28;20198;-76
2023/12/30 04:10:30;;;;;;;8.00;2.47;;;8.90;99.90;;;;;;5031702;28;20203;-76
2023/12/30 04:12:58;;;;;;;8.50;2.70;;;8.90;99.90;;;;;;5032211;28;20227;-76
2023/12/30 04:15:25;;;;;;;10.73;2.73;;;8.90;99.90;;;;;;5031224;28;20237;-76
2023/12/30 04:17:52;;;;;;;6.27;2.30;;;8.90;99.90;;;;;;5032185;28;20555;-76
2023/12/30 04:20:20;;;;;;;9.53;2.47;;;8.90;99.90;;;;;;5031818;28;20195;-76
2023/12/30 04:22:48;;;;;;;8.33;2.63;;;8.90;99.90;;;;;;5031631;28;20695;-76
2023/12/30 04:25:17;;;;;;;9.27;2.40;;;8.90;99.90;;;;;;5031189;28;20230;-76
2023/12/30 04:27:44;;;;;;;7.90;3.53;;;8.90;99.90;;;;;;5031662;28;20195;-76
2023/12/30 04:30:12;;;;;;;10.27;3.03;;;8.90;99.90;;;;;;5031663;28;20210;-76
2023/12/30 04:32:40;;;;;;;10.80;3.00;;;8.90;99.90;;;;;;5031630;28;20205;-76
2023/12/30 04:35:08;;;;;;;8.27;2.37;;;8.90;99.90;;;;;;5030875;28;20223;-76
2023/12/30 04:37:36;;;;;;;6.93;2.37;;;9.00;99.90;;;;;;5031348;28;20199;-76
2023/12/30 04:40:04;;;;;;;10.03;2.77;;;8.70;99.90;;;;;;5033155;28;20219;-76
2023/12/30 04:42:33;;;;;;;5.87;2.27;;;8.60;99.90;;;;;;5031625;28;20676;-76
2023/12/30 04:45:00;;;;;;;3.97;1.90;;;8.60;99.90;;;;;;5012043;28;20230;-76
2023/12/30 04:47:28;;;;;;;5.10;1.93;;;8.50;99.90;;;;;;5030574;28;20206;-76
2023/12/30 04:49:55;;;;;;;5.47;2.33;;;8.60;99.90;;;;;;5031291;28;20198;-76
2023/12/30 04:52:22;;;;;;;6.10;2.50;;;8.50;99.90;;;;;;5031087;28;20199;-76
2023/12/30 04:54:50;;;;;;;9.97;2.50;;;8.60;99.90;;;;;;5059439;22;20229;-77
2023/12/30 04:57:17;;;;;;;9.53;2.37;;;8.70;99.90;;;;;;5036544;28;20210;-77
2023/12/30 04:59:46;;;;;;;10.33;2.50;;;8.70;99.90;;;;;;5034559;28;20201;-77
2023/12/30 05:02:13;;;;;;;7.93;2.43;;;8.70;99.90;;;;;;5053591;28;20209;-77
2023/12/30 05:04:43;;;;;;;9.00;2.80;;;8.70;99.90;;;;;;5047855;28;20219;-77
2023/12/30 05:07:10;;;;;;;8.93;2.33;;;8.70;99.90;;;;;;5028828;28;20199;-77
2023/12/30 05:09:38;;;;;;;8.77;2.93;;;8.60;99.90;;;;;;5014848;28;20191;-77
2023/12/30 05:12:06;;;;;;;9.90;2.93;;;8.60;99.90;;;;;;5015994;28;20206;-77
2023/12/30 05:14:33;;;;;;;10.20;2.60;;;8.60;99.90;;;;;;5052035;28;20209;-77
2023/12/30 05:17:02;;;;;;;7.43;2.37;;;8.60;99.90;;;;;;5052017;28;20213;-77
2023/12/30 05:19:29;;;;;;;8.43;2.93;;;8.60;99.90;;;;;;5034502;28;20195;-77
2023/12/30 05:21:57;;;;;;;5.67;2.83;;;8.60;99.90;;;;;;5025833;28;20673;-77
2023/12/30 05:24:24;;;;;;;11.57;3.37;;;8.70;99.90;;;;;;5029981;28;20190;-77
2023/12/30 05:26:51;;;;;;;6.97;2.80;;;8.70;99.90;;;;;;5018287;28;20568;-77
2023/12/30 05:29:19;;;;;;;8.63;2.70;;;8.60;99.90;;;;;;5014695;28;20561;-77
2023/12/30 05:31:46;;;;;;;9.37;2.97;;;8.60;99.90;;;;;;5006042;28;20206;-77
2023/12/30 05:34:15;;;;;;;6.97;2.77;;;8.60;99.90;;;;;;5037061;28;20269;-77
2023/12/30 05:36:43;;;;;;;9.00;2.73;;;8.60;99.90;;;;;;5028016;28;20308;-77
2023/12/30 05:39:12;;;;;;;9.77;3.33;;;8.60;99.90;;;;;;5027986;28;20201;-77
2023/12/30 05:41:40;;;;;;;9.27;2.80;;;8.60;99.90;;;;;;5029851;28;20202;-77
2023/12/30 05:44:07;;;;;;;9.80;2.57;;;8.60;99.90;;;;;;5024995;28;20202;-77
2023/12/30 05:46:35;;;;;;;12.23;3.47;;;8.60;99.90;;;;;;5041017;28;20214;-77
2023/12/30 05:49:02;;;;;;;13.30;3.03;;;8.60;99.90;;;;;;5023374;28;20198;-77
2023/12/30 05:51:31;;;;;;;6.00;2.50;;;8.60;99.90;;;;;;5022690;28;20195;-77
2023/12/30 05:53:58;;;;;;;8.17;2.70;;;8.60;99.90;;;;;;5014395;28;20222;-77
2023/12/30 05:56:26;;;;;;;7.37;1.90;;;8.60;99.90;;;;;;5041717;28;20237;-77
2023/12/30 05:58:54;;;;;;;6.23;2.43;;;8.60;99.90;;;;;;5026576;28;20202;-77
2023/12/30 06:01:21;;;;;;;9.37;2.67;;;8.60;99.90;;;;;;5028271;28;20562;-77
2023/12/30 06:03:49;;;;;;;9.70;3.00;;;8.60;99.90;;;;;;5026116;28;20197;-77
2023/12/30 06:06:16;;;;;;;8.90;2.37;;;8.60;99.90;;;;;;5032369;28;20221;-77
2023/12/30 06:08:45;;;;;;;9.37;2.67;;;8.60;99.90;;;;;;5023077;28;20191;-77
2023/12/30 06:11:12;;;;;;;6.33;2.17;;;8.60;99.90;;;;;;5014174;28;20203;-77
2023/12/30 06:13:41;;;;;;;8.30;2.53;;;8.60;99.90;;;;;;5014270;28;20215;-77
2023/12/30 06:16:10;;;;;;;3.93;2.10;;;8.60;99.90;;;;;;5036772;28;20222;-77
2023/12/30 06:18:37;;;;;;;8.07;2.20;;;8.60;99.90;;;;;;5043801;28;20202;-77
2023/12/30 06:21:05;;;;;;;11.00;3.53;;;8.60;99.90;;;;;;5046101;28;20183;-76
2023/12/30 06:23:33;;;;;;;10.77;2.83;;;8.60;99.90;;;;;;5041033;28;20194;-76
2023/12/30 06:26:01;;;;;;;6.77;2.40;;;9.00;99.90;;;;;;5025478;28;20229;-76
2023/12/30 06:28:29;;;;;;;4.43;2.07;;;8.90;99.90;;;;;;5024946;28;20673;-77
2023/12/30 06:31:06;;;;;;;;;;;;;;;;;;;;;
2023/12/30 06:33:36;;;;;;;8.70;2.80;;;8.60;99.90;;;;;;5018270;28;20206;-77
2023/12/30 06:36:07;;;;;;;9.57;3.00;;;8.60;99.90;;;;;;5034798;28;20211;-77
2023/12/30 06:39:25;;;;;;;9.87;2.50;;;8.50;99.90;;;;;;5013111;28;20203;-77
2023/12/30 06:41:53;;;;;;;7.97;2.87;;;8.50;99.90;;;;;;5006417;28;20672;-77
2023/12/30 06:44:21;;;;;;;7.60;2.50;;;8.50;99.90;;;;;;5008202;28;20204;-77
2023/12/30 06:46:48;;;;;;;8.40;2.67;;;8.40;99.90;;;;;;5034920;28;20206;-77
2023/12/30 06:49:16;;;;;;;10.47;3.40;;;8.50;99.90;;;;;;5022366;28;20205;-77
2023/12/30 06:51:44;;;;;;;10.43;2.80;;;8.50;99.90;;;;;;5023283;28;20214;-77
2023/12/30 06:54:11;;;;;;;10.53;3.17;;;8.50;99.90;;;;;;5021280;28;20698;-77
2023/12/30 06:56:39;;;;;;;6.50;3.03;;;8.50;99.90;;;;;;5034118;28;20226;-77
2023/12/30 06:59:07;;;;;;;8.77;3.10;;;8.50;99.90;;;;;;5036150;28;20202;-77
2023/12/30 07:01:39;;;;;;;10.47;3.13;;;8.50;99.90;;;;;;5015478;28;20199;-77
2023/12/30 07:04:06;;;;;;;12.10;3.20;;;8.50;99.90;;;;;;5015966;28;20199;-77
2023/12/30 07:06:33;;;;;;;8.27;3.20;;;8.50;99.90;;;;;;5028025;28;20692;-77
2023/12/30 07:09:01;;;;;;;8.70;3.03;;;8.50;99.90;;;;;;5013314;28;20661;-77
2023/12/30 07:11:34;;;;;;;9.13;3.07;;;8.50;99.90;;;;;;5034154;28;20187;-77
2023/12/30 07:14:02;;;;;;;12.10;3.30;;;8.50;99.90;;;;;;5019504;28;20222;-77
2023/12/30 07:16:31;;;;;;;12.67;2.97;;;8.50;99.90;;;;;;5026014;28;20223;-78
2023/12/30 07:18:58;;;;;;;9.20;2.97;;;8.50;99.90;;;;;;5036009;28;20192;-80
2023/12/30 07:21:25;;;;;;;8.23;2.70;;;8.50;99.90;;;;;;5018218;28;20190;-78
2023/12/30 07:23:53;;;;;;;7.40;2.87;;;8.50;99.90;;;;;;5019787;28;20209;-78
2023/12/30 07:26:21;;;;;;;12.40;3.13;;;8.50;99.90;;;;;;5012934;28;20222;-78
2023/12/30 07:28:48;;;;;;;10.80;3.33;;;8.50;99.90;;;;;;5017413;28;20199;-78
2023/12/30 07:31:16;;;;;;;10.07;3.20;;;8.50;99.90;;;;;;5021749;28;20202;-78
2023/12/30 07:33:44;;;;;;;9.20;3.10;;;8.50;99.90;;;;;;5022507;28;20209;-77
2023/12/30 07:36:12;;;;;;;8.60;2.47;;;8.50;99.90;;;;;;5008839;28;20222;-78
2023/12/30 07:38:39;;;;;;;6.63;2.83;;;8.40;99.90;;;;;;5026086;28;20214;-79
2023/12/30 07:41:07;;;;;;;10.27;3.57;;;8.40;99.90;;;;;;5025316;28;20203;-80
2023/12/30 07:43:35;;;;;;;7.23;3.87;;;8.40;99.90;;;;;;5021545;28;20648;-79
2023/12/30 07:46:12;;;;;;;12.67;4.07;;;8.40;99.90;;;;;;5028924;28;20211;-78
2023/12/30 07:48:40;;;;;;;8.63;3.07;;;8.40;99.90;;;;;;5040649;28;20194;-78
2023/12/30 07:51:08;;;;;;;9.37;3.40;;;8.40;99.90;;;;;;5034684;28;20210;-77
2023/12/30 07:53:36;;;;;;;8.47;3.07;;;8.30;99.90;;;;;;5013225;28;20199;-78
2023/12/30 07:56:04;;;;;;;14.43;3.10;;;8.40;99.90;;;;;;5020197;28;20230;-80
2023/12/30 07:58:31;;;;;;;10.00;2.87;;;8.40;99.90;;;;;;5019227;28;20198;-79
2023/12/30 08:01:01;;;;;;;5.10;2.50;;;8.40;99.90;;;;;;5029019;28;20210;-77
2023/12/30 08:03:29;;;;;;;11.40;3.27;;;8.40;99.90;;;;;;5013662;28;21664;-80
2023/12/30 08:05:57;;;;;;;11.77;3.30;;;8.40;99.90;;;;;;5015576;28;20227;-79
2023/12/30 08:08:26;;;;;;;7.30;3.17;;;8.50;99.90;;;;;;5029332;28;20207;-80
2023/12/30 08:10:54;;;;;;;8.90;3.37;;;8.40;99.90;;;;;;5014059;28;20202;-77
2023/12/30 08:13:23;;;;;;;12.27;3.17;;;8.50;99.90;;;;;;5036634;28;20207;-76
2023/12/30 08:15:51;;;;;;;11.10;3.83;;;8.50;99.90;;;;;;5014784;28;20577;-77
2023/12/30 08:18:19;;;;;;;9.77;3.30;;;8.50;99.90;;;;;;5007347;28;20699;-77
2023/12/30 08:20:49;;;;;;;9.40;2.70;;;8.50;99.90;;;;;;5031581;28;20210;-78
2023/12/30 08:23:16;;;;;;;11.13;3.23;;;8.50;99.90;;;;;;5007251;28;20200;-79
2023/12/30 08:25:45;;;;;;;10.07;2.80;;;8.60;99.90;;;;;;5030999;28;20223;-78
2023/12/30 08:28:12;;;;;;;8.00;3.07;;;8.60;99.90;;;;;;5014380;28;20210;-79
2023/12/30 08:30:40;;;;;;;10.30;3.20;;;8.60;99.90;;;;;;5015110;28;20194;-78
2023/12/30 08:33:09;;;;;;;9.33;3.20;;;8.60;99.90;;;;;;5008749;28;20226;-78
2023/12/30 08:35:37;;;;;;;8.53;2.87;;;8.60;99.90;;;;;;5012728;28;20226;-78
2023/12/30 08:38:04;;;;;;;11.93;3.10;;;8.60;99.90;;;;;;5013800;28;20203;-78
2023/12/30 08:40:31;;;;;;;11.70;3.10;;;8.70;99.90;;;;;;5017668;28;20778;-77
2023/12/30 08:43:00;;;;;;;6.27;3.17;;;8.60;99.90;;;;;;5012717;28;20687;-78
2023/12/30 08:45:28;;;;;;;9.77;2.63;;;8.70;99.90;;;;;;5008255;28;20220;-78
2023/12/30 08:48:03;;;;;;;11.13;3.30;;;8.60;99.90;;;;;;5031491;28;20195;-78
2023/12/30 08:50:31;;;;;;;13.23;2.70;;;8.70;99.90;;;;;;5013809;28;20568;-79
2023/12/30 08:52:59;;;;;;;7.57;2.67;;;8.60;99.90;;;;;;5011375;28;20214;-77
2023/12/30 08:55:26;;;;;;;9.27;3.43;;;8.70;99.90;;;;;;5019992;28;20226;-77
2023/12/30 08:57:53;;;;;;;11.97;3.37;;;8.70;99.90;;;;;;5014988;28;20690;-78
2023/12/30 09:00:22;;;;;;;10.97;3.03;;;8.80;99.90;;;;;;5015186;28;20570;-77
2023/12/30 09:02:55;;;;;;;11.97;2.37;;;8.70;99.90;;;;;;5018176;28;20199;-78
2023/12/30 09:05:22;;;;;;;9.83;3.33;;;8.70;99.90;;;;;;5020386;28;20225;-79
2023/12/30 09:07:51;;;;;;;6.00;3.03;;;8.80;99.90;;;;;;5016570;28;20206;-79
2023/12/30 09:10:19;;;;;;;9.73;3.00;;;8.80;99.90;;;;;;5017239;28;20199;-79
2023/12/30 09:12:47;;;;;;;10.33;3.27;;;8.70;99.90;;;;;;5016183;28;20557;-79
2023/12/30 09:15:23;;;;;;;9.90;3.20;;;8.80;99.90;;;;;;5033432;28;20226;-79
2023/12/30 09:17:50;;;;;;;9.77;2.87;;;8.80;99.90;;;;;;5016056;28;20202;-79
2023/12/30 09:20:17;;;;;;;8.33;2.57;;;8.80;99.90;;;;;;5016079;28;20198;-79
2023/12/30 09:22:45;;;;;;;10.90;2.70;;;8.80;99.90;;;;;;5016191;28;20209;-79
2023/12/30 09:25:13;;;;;;;10.33;2.73;;;8.80;99.90;;;;;;5016271;28;20215;-79
2023/12/30 09:27:40;;;;;;;6.90;2.70;;;8.90;99.90;;;;;;5016675;28;20203;-79
2023/12/30 09:30:09;;;;;;;11.27;3.40;;;8.90;99.90;;;;;;5016676;28;20202;-79
2023/12/30 09:32:37;;;;;;;10.70;2.97;;;8.80;99.90;;;;;;5016140;28;20203;-79
2023/12/30 09:35:06;;;;;;;8.73;3.37;;;8.80;99.90;;;;;;5016108;28;20238;-79
2023/12/30 09:37:36;;;;;;;10.00;3.47;;;8.90;99.90;;;;;;5016288;28;20199;-79
2023/12/30 09:40:04;;;;;;;11.23;3.00;;;8.80;99.90;;;;;;5015978;28;20199;-79
2023/12/30 09:42:32;;;;;;;10.43;3.63;;;8.90;99.90;;;;;;5016365;28;20206;-79
2023/12/30 09:45:01;;;;;;;8.40;2.70;;;8.90;99.90;;;;;;5016285;28;20215;-79
2023/12/30 09:47:30;;;;;;;7.90;2.57;;;8.90;99.90;;;;;;5016076;28;20220;-79
2023/12/30 09:49:59;;;;;;;6.27;3.07;;;8.90;99.90;;;;;;5016060;28;20533;-79
2023/12/30 09:52:26;;;;;;;10.97;3.60;;;8.90;99.90;;;;;;5033269;28;20206;-79
2023/12/30 09:54:54;;;;;;;9.93;3.33;;;8.90;99.90;;;;;;5015561;28;20222;-79
2023/12/30 09:57:22;;;;;;;10.13;3.33;;;8.90;99.90;;;;;;5019920;28;20226;-79
2023/12/30 09:59:51;;;;;;;16.80;3.37;;;8.90;99.90;;;;;;5037473;28;20641;-79
2023/12/30 10:02:19;;;;;;;10.40;3.27;;;8.90;99.90;;;;;;5024893;28;20203;-79
2023/12/30 10:04:49;;;;;;;8.93;3.00;;;9.00;99.90;;;;;;5042094;28;20219;-78
2023/12/30 10:07:21;;;;;;;10.60;3.67;;;9.00;99.90;;;;;;5018176;28;20202;-78
2023/12/30 10:09:50;;;;;;;10.17;3.10;;;9.00;99.90;;;;;;5022898;28;20198;-79
2023/12/30 10:12:18;;;;;;;7.93;3.00;;;9.10;99.90;;;;;;5020998;28;20195;-78
2023/12/30 10:14:45;;;;;;;10.37;3.10;;;9.10;99.90;;;;;;5019106;28;20229;-79
2023/12/30 10:17:13;;;;;;;14.23;3.27;;;9.10;99.90;;;;;;5020411;28;20211;-79
2023/12/30 10:19:41;;;;;;;9.90;3.60;;;9.10;99.90;;;;;;5033353;28;20202;-79
2023/12/30 10:22:08;;;;;;;9.50;3.10;;;9.10;99.90;;;;;;5014299;28;20196;-82
2023/12/30 10:24:44;;;;;;;11.63;3.83;;;9.10;99.90;;;;;;5023080;28;20838;-80
2023/12/30 10:27:11;;;;;;;11.63;3.70;;;9.20;99.90;;;;;;5043859;28;20187;-83
2023/12/30 10:29:39;;;;;;;7.90;3.33;;;9.20;99.90;;;;;;5018063;28;20210;-80
2023/12/30 10:32:10;;;;;;;8.63;3.13;;;9.20;99.90;;;;;;5021738;28;20207;-79
2023/12/30 10:34:40;;;;;;;14.07;4.13;;;9.20;99.90;;;;;;5031165;28;20656;-79
2023/12/30 10:37:09;;;;;;;17.27;4.40;;;9.30;99.90;;;;;;5014348;28;20218;-80
2023/12/30 10:39:42;;;;;;;13.40;3.73;;;9.20;99.90;;;;;;5025965;28;20206;-80
2023/12/30 10:42:14;;;;;;;8.47;3.57;;;9.20;99.90;;;;;;5023283;28;20191;-79
2023/12/30 10:44:42;;;;;;;10.47;3.50;;;9.20;99.90;;;;;;5020936;28;20234;-79
2023/12/30 10:47:15;;;;;;;10.40;3.47;;;9.30;99.90;;;;;;5024899;28;20199;-79
2023/12/30 10:49:49;;;;;;;9.17;3.23;;;9.20;99.90;;;;;;5041295;28;20183;-79
2023/12/30 10:52:22;;;;;;;9.97;4.30;;;9.30;99.90;;;;;;5013680;28;20656;-79
2023/12/30 10:54:59;;;;;;;10.90;3.47;;;9.30;99.90;;;;;;5016699;28;20700;-79
2023/12/30 10:57:31;;;;;;;11.97;3.63;;;9.30;99.90;;;;;;5030501;28;20218;-79
2023/12/30 11:00:09;;;;;;;7.90;3.53;;;9.30;99.90;;;;;;5018938;28;20191;-80
2023/12/30 11:02:37;;;;;;;6.80;2.80;;;9.30;99.90;;;;;;5018663;28;20198;-79
2023/12/30 11:05:09;;;;;;;9.37;2.87;;;9.30;99.90;;;;;;5022284;28;20230;-79
2023/12/30 11:07:39;;;;;;;12.83;3.90;;;9.40;99.90;;;;;;5022810;28;20194;-79
2023/12/30 11:10:21;;;;;;;9.60;2.80;;;9.40;99.90;;;;;;5020941;28;20195;-77
2023/12/30 11:12:49;;;;;;;10.30;3.23;;;9.40;99.90;;;;;;5017671;28;20195;-80
2023/12/30 11:15:24;;;;;;;8.30;3.23;;;9.40;99.90;;;;;;5020255;28;20231;-80
2023/12/30 11:17:52;;;;;;;8.40;3.40;;;9.40;99.90;;;;;;5020880;28;20571;-78
2023/12/30 11:20:27;;;;;;;12.40;3.77;;;9.40;99.90;;;;;;5023873;28;20213;-79
2023/12/30 11:22:57;;;;;;;12.47;4.00;;;9.40;99.90;;;;;;5038424;28;20191;-79
2023/12/30 11:25:36;;;;;;;7.67;2.83;;;9.40;99.90;;;;;;5013249;28;20238;-79
2023/12/30 11:28:13;;;;;;;12.27;3.53;;;9.50;99.90;;;;;;5017959;28;20524;-79
2023/12/30 11:30:58;;;;;;;10.43;3.47;;;9.50;99.90;;;;;;5023465;28;20201;-79
2023/12/30 11:33:25;;;;;;;9.53;3.03;;;9.50;99.90;;;;;;5040078;28;20206;-79
2023/12/30 11:35:55;;;;;;;12.90;3.83;;;9.50;99.90;;;;;;5022875;28;20219;-79
2023/12/30 11:38:24;;;;;;;11.87;3.73;;;9.50;99.90;;;;;;5020757;28;20207;-78
2023/12/30 11:40:54;;;;;;;5.23;2.77;;;9.50;99.90;;;;;;5034470;28;20203;-78
2023/12/30 11:43:24;;;;;;;12.33;3.37;;;9.60;99.90;;;;;;5006776;28;20203;-79
2023/12/30 11:45:52;;;;;;;8.10;3.17;;;9.50;99.90;;;;;;5021990;28;20214;-78
2023/12/30 11:48:20;;;;;;;10.00;3.37;;;9.60;99.90;;;;;;5017521;28;20667;-79
2023/12/30 11:50:53;;;;;;;11.60;3.67;;;9.60;99.90;;;;;;5043798;28;20580;-78
2023/12/30 11:53:21;;;;;;;10.27;3.47;;;9.60;99.90;;;;;;5020306;28;20203;-79
2023/12/30 11:55:49;;;;;;;8.70;2.70;;;9.60;99.90;;;;;;5020845;28;20593;-78
2023/12/30 11:58:18;;;;;;;5.53;3.43;;;9.70;99.90;;;;;;5028638;28;20226;-79
2023/12/30 12:00:45;;;;;;;10.93;2.90;;;9.60;99.90;;;;;;5021122;28;20217;-79
2023/12/30 12:03:13;;;;;;;14.43;3.90;;;9.70;99.90;;;;;;5039362;28;20218;-78
2023/12/30 12:05:40;;;;;;;9.37;2.90;;;9.70;99.90;;;;;;5017798;28;20230;-78
2023/12/30 12:08:10;;;;;;;11.57;3.20;;;9.70;99.90;;;;;;5026413;28;20202;-78
2023/12/30 12:10:37;;;;;;;8.00;3.37;;;9.70;99.90;;;;;;5030691;28;20195;-80
2023/12/30 12:13:09;;;;;;;11.83;3.33;;;9.80;99.90;;;;;;5010537;28;20214;-78
2023/12/30 12:15:38;;;;;;;14.30;3.70;;;9.80;99.90;;;;;;5014405;28;20221;-78
2023/12/30 12:18:05;;;;;;;8.07;3.30;;;9.80;99.90;;;;;;5027740;28;20222;-79
2023/12/30 12:20:40;;;;;;;7.63;3.20;;;9.80;99.90;;;;;;5025197;28;20206;-77
2023/12/30 12:23:08;;;;;;;8.00;3.70;;;9.90;99.90;;;;;;5018998;28;20209;-78
2023/12/30 12:25:37;;;;;;;10.73;2.97;;;9.90;99.90;;;;;;5019105;28;20302;-79
2023/12/30 12:28:09;;;;;;;14.57;3.07;;;9.90;99.90;;;;;;5014490;28;20218;-78
2023/12/30 12:30:38;;;;;;;10.83;2.77;;;9.90;99.90;;;;;;5020020;28;20207;-78
2023/12/30 12:33:06;;;;;;;10.83;3.07;;;10.00;99.90;;;;;;5037875;28;20191;-80
2023/12/30 12:35:33;;;;;;;10.00;3.37;;;10.00;99.90;;;;;;5036811;28;20214;-80
2023/12/30 12:38:01;;;;;;;6.03;2.83;;;10.00;99.90;;;;;;5017967;28;20226;-80
2023/12/30 12:40:29;;;;;;;6.77;2.57;;;9.90;99.90;;;;;;5017452;28;20210;-79
2023/12/30 12:42:56;;;;;;;7.10;2.87;;;10.00;99.90;;;;;;5016836;28;20580;-80
2023/12/30 12:45:24;;;;;;;7.47;2.10;;;10.00;99.90;;;;;;5019801;28;20218;-80
2023/12/30 12:47:52;;;;;;;12.33;2.70;;;10.00;99.90;;;;;;5018800;28;20207;-79
2023/12/30 12:50:20;;;;;;;5.30;2.43;;;10.10;99.90;;;;;;5023809;28;20668;-79
2023/12/30 12:52:47;;;;;;;8.87;2.43;;;10.10;99.90;;;;;;5016862;28;20229;-79
2023/12/30 12:55:15;;;;;;;8.50;2.77;;;10.20;99.90;;;;;;5024517;28;20237;-79
2023/12/30 12:57:42;;;;;;;8.33;2.60;;;10.30;99.90;;;;;;5015772;28;20226;-79
2023/12/30 13:00:12;;;;;;;8.07;2.47;;;10.40;99.90;;;;;;5035040;28;20198;-79
2023/12/30 13:02:39;;;;;;;8.73;2.73;;;10.40;99.90;;;;;;5018070;28;20207;-79